createdAt,value
2023-01-19T00:02:52.294Z,0.43
2023-01-19T00:06:55.382Z,0.45
2023-01-19T00:10:58.662Z,0.44
2023-01-19T00:15:03.835Z,0.45
2023-01-19T00:19:06.979Z,0.48
2023-01-19T00:23:10.353Z,0.46
2023-01-19T00:27:13.269Z,0.45
2023-01-19T00:31:20.807Z,0.43
2023-01-19T00:35:24.347Z,0.44
2023-01-19T00:39:27.263Z,0.40
2023-01-19T00:43:30.461Z,0.40
2023-01-19T00:47:34.889Z,0.39
2023-01-19T00:51:37.800Z,0.40
2023-01-19T00:55:41.004Z,0.41
2023-01-19T00:59:44.333Z,0.46
2023-01-19T01:03:48.724Z,0.51
2023-01-19T01:07:51.810Z,0.52
2023-01-19T01:11:54.997Z,0.51
2023-01-19T01:15:58.892Z,0.49
2023-01-19T01:20:04.900Z,0.48
2023-01-19T01:24:08.501Z,0.48
2023-01-19T01:28:11.945Z,0.45
2023-01-19T01:32:15.116Z,0.39
2023-01-19T01:36:21.190Z,0.33
2023-01-19T01:40:24.062Z,0.25
2023-01-19T01:44:50.182Z,0.17
2023-01-19T01:48:59.169Z,0.11
2023-01-19T01:53:08.232Z,0.09
2023-01-19T01:57:13.482Z,0.12
2023-01-19T02:01:34.194Z,0.16
2023-01-19T02:05:38.409Z,0.17
2023-01-19T02:10:00.565Z,0.22
2023-01-19T02:14:06.134Z,0.27
2023-01-19T02:18:09.281Z,0.29
2023-01-19T02:22:18.175Z,0.29
2023-01-19T02:26:25.552Z,0.31
2023-01-19T02:30:30.049Z,0.30
2023-01-19T02:34:34.012Z,0.31
2023-01-19T02:38:38.688Z,0.35
2023-01-19T02:42:45.698Z,0.37
2023-01-19T02:46:49.030Z,0.39
2023-01-19T02:50:54.439Z,0.39
2023-01-19T02:55:06.265Z,0.41
2023-01-19T02:59:17.207Z,0.41
2023-01-19T03:03:31.266Z,0.37
2023-01-19T03:07:43.881Z,0.33
2023-01-19T03:11:52.911Z,0.31
2023-01-19T03:16:01.747Z,0.29
2023-01-19T03:20:07.285Z,0.31
2023-01-19T03:24:13.636Z,0.33
2023-01-19T03:28:21.074Z,0.35
2023-01-19T03:32:30.543Z,0.37
2023-01-19T03:36:37.409Z,0.39
2023-01-19T03:40:42.392Z,0.38
2023-01-19T03:44:50.800Z,0.41
2023-01-19T03:48:56.458Z,0.41
2023-01-19T03:53:06.991Z,0.42
2023-01-19T03:57:10.215Z,0.42
2023-01-19T04:01:13.914Z,0.41
2023-01-19T04:05:19.381Z,0.41
2023-01-19T04:09:22.247Z,0.40
2023-01-19T04:13:27.358Z,0.41
2023-01-19T04:17:30.360Z,0.43
2023-01-19T04:21:35.535Z,0.44
2023-01-19T04:25:43.583Z,0.45
2023-01-19T04:29:46.660Z,0.41
2023-01-19T04:33:49.872Z,0.43
2023-01-19T04:38:01.140Z,0.41
2023-01-19T04:42:06.599Z,0.44
2023-01-19T04:46:09.722Z,0.47
2023-01-19T04:50:13.674Z,0.51
2023-01-19T04:54:18.179Z,0.51
2023-01-19T04:58:21.179Z,0.49
2023-01-19T05:02:24.361Z,0.48
2023-01-19T05:06:27.586Z,0.49
2023-01-19T05:10:32.185Z,0.51
2023-01-19T05:14:35.377Z,0.49
2023-01-19T05:18:38.407Z,0.52
2023-01-19T05:22:41.865Z,0.57
2023-01-19T05:26:48.244Z,0.54
2023-01-19T05:30:51.833Z,0.57
2023-01-19T05:34:54.450Z,0.57
2023-01-19T05:39:00.227Z,0.62
2023-01-19T05:43:05.570Z,0.57
2023-01-19T05:47:08.865Z,0.56
2023-01-19T05:51:12.127Z,0.56
2023-01-19T05:55:16.860Z,0.55
2023-01-19T05:59:24.317Z,0.58
2023-01-19T06:03:28.949Z,0.55
2023-01-19T06:07:32.530Z,0.56
2023-01-19T06:11:35.414Z,0.62
2023-01-19T06:15:39.942Z,0.60
2023-01-19T06:19:43.157Z,0.61
2023-01-19T06:23:46.657Z,0.60
2023-01-19T06:27:49.745Z,0.60
2023-01-19T06:31:54.339Z,0.59
2023-01-19T06:35:57.684Z,0.61
2023-01-19T06:40:01.127Z,0.65
2023-01-19T06:44:04.341Z,0.65
2023-01-19T06:48:08.721Z,0.59
2023-01-19T06:52:12.619Z,0.55
2023-01-19T06:56:15.522Z,0.52
2023-01-19T07:00:19.623Z,0.51
2023-01-19T07:04:23.663Z,0.52
2023-01-19T07:08:26.845Z,0.57
2023-01-19T07:12:31.781Z,0.57
2023-01-19T07:16:34.970Z,0.55
2023-01-19T07:20:40.186Z,0.55
2023-01-19T07:24:43.181Z,0.60
2023-01-19T07:28:47.458Z,0.63
2023-01-19T07:32:51.460Z,0.64
2023-01-19T07:36:57.418Z,0.60
2023-01-19T07:41:04.276Z,0.61
2023-01-19T07:45:08.485Z,0.65
2023-01-19T07:49:11.952Z,0.70
2023-01-19T07:53:17.367Z,0.71
2023-01-19T07:57:21.037Z,0.74
2023-01-19T08:01:26.644Z,0.76
2023-01-19T08:05:34.156Z,0.77
2023-01-19T08:09:38.815Z,0.80
2023-01-19T08:13:42.073Z,0.80
2023-01-19T08:17:45.036Z,0.82
2023-01-19T08:21:48.291Z,0.88
2023-01-19T08:25:52.976Z,0.87
2023-01-19T08:29:56.184Z,0.92
2023-01-19T08:33:59.754Z,0.98
2023-01-19T08:38:02.911Z,1.01
2023-01-19T08:42:07.471Z,1.03
2023-01-19T08:46:10.755Z,1.01
2023-01-19T08:50:13.972Z,1.06
2023-01-19T08:54:18.525Z,1.11
2023-01-19T08:58:23.082Z,1.14
2023-01-19T09:02:26.142Z,1.17
2023-01-19T09:06:29.337Z,1.19
2023-01-19T09:10:36.289Z,1.23
2023-01-19T09:14:41.022Z,1.27
2023-01-19T09:18:45.395Z,1.30
2023-01-19T09:22:49.208Z,1.31
2023-01-19T09:26:52.327Z,1.32
2023-01-19T09:30:57.517Z,1.36
2023-01-19T09:35:00.599Z,1.38
2023-01-19T09:39:03.376Z,1.41
2023-01-19T09:43:16.470Z,1.40
2023-01-19T09:47:25.100Z,1.41
2023-01-19T09:51:30.370Z,1.46
2023-01-19T09:55:33.929Z,1.54
2023-01-19T09:59:39.024Z,1.54
2023-01-19T10:03:43.523Z,1.49
2023-01-19T10:08:06.520Z,1.46
2023-01-19T10:12:19.737Z,1.45
2023-01-19T10:16:34.043Z,1.44
2023-01-19T10:20:41.844Z,1.43
2023-01-19T10:24:45.862Z,1.43
2023-01-19T10:28:53.041Z,1.41
2023-01-19T10:32:56.731Z,1.41
2023-01-19T10:37:06.545Z,1.45
2023-01-19T10:41:19.561Z,1.49
2023-01-19T10:45:25.961Z,1.57
2023-01-19T10:49:31.604Z,1.65
2023-01-19T10:53:36.316Z,1.74
2023-01-19T10:57:43.740Z,1.82
2023-01-19T11:02:04.275Z,1.88
2023-01-19T11:06:25.322Z,1.86
2023-01-19T11:10:31.678Z,1.83
2023-01-19T11:14:34.744Z,1.81
2023-01-19T11:18:39.657Z,1.80
2023-01-19T11:22:42.897Z,1.85
2023-01-19T11:26:49.736Z,1.91
2023-01-19T11:30:57.181Z,1.95
2023-01-19T11:35:01.261Z,2.01
2023-01-19T11:39:23.831Z,2.03
2023-01-19T11:43:43.503Z,2.03
2023-01-19T11:47:57.669Z,2.00
2023-01-19T11:52:06.463Z,1.99
2023-01-19T11:56:12.905Z,2.00
2023-01-19T12:00:31.219Z,2.01
2023-01-19T12:04:42.892Z,2.05
2023-01-19T12:08:52.276Z,2.03
2023-01-19T12:12:55.818Z,2.02
2023-01-19T12:17:15.900Z,2.03
2023-01-19T12:21:20.764Z,2.03
2023-01-19T12:25:26.592Z,2.03
2023-01-19T12:29:35.363Z,2.02
2023-01-19T12:33:40.448Z,1.97
2023-01-19T12:37:45.604Z,1.94
2023-01-19T12:41:49.075Z,1.87
2023-01-19T12:45:52.677Z,1.87
2023-01-19T12:50:00.705Z,1.89
2023-01-19T12:54:08.155Z,1.93
2023-01-19T12:58:19.074Z,1.98
2023-01-19T13:02:53.622Z,2.02
2023-01-19T13:07:19.506Z,2.01
2023-01-19T13:11:27.090Z,2.01
2023-01-19T13:15:37.199Z,1.98
2023-01-19T13:19:50.545Z,1.97
2023-01-19T13:23:55.994Z,1.93
2023-01-19T13:28:01.058Z,1.92
2023-01-19T13:32:10.164Z,1.89
2023-01-19T13:36:22.884Z,1.86
2023-01-19T13:40:33.669Z,1.81
2023-01-19T13:44:44.992Z,1.80
2023-01-19T13:48:58.635Z,1.75
2023-01-19T13:53:02.957Z,1.73
2023-01-19T13:57:05.899Z,1.70
2023-01-19T14:01:22.760Z,1.68
2023-01-19T14:05:29.067Z,1.67
2023-01-19T14:09:32.334Z,1.64
2023-01-19T14:13:40.311Z,1.60
2023-01-19T14:17:44.756Z,1.58
2023-01-19T14:21:47.659Z,1.56
2023-01-19T14:25:50.796Z,1.54
2023-01-19T14:29:55.180Z,1.53
2023-01-19T14:33:59.688Z,1.51
2023-01-19T14:38:02.673Z,1.49
2023-01-19T14:42:08.030Z,1.46
2023-01-19T14:46:19.240Z,1.42
2023-01-19T14:50:33.718Z,1.38
2023-01-19T14:54:41.091Z,1.37
2023-01-19T14:58:44.368Z,1.36
2023-01-19T15:02:48.541Z,1.34
2023-01-19T15:06:53.220Z,1.32
2023-01-19T15:10:57.369Z,1.31
2023-01-19T15:15:00.422Z,1.29
2023-01-19T15:19:03.123Z,1.29
2023-01-19T15:23:07.608Z,1.30
2023-01-19T15:27:13.541Z,1.28
2023-01-19T15:31:18.512Z,1.27
2023-01-19T15:35:23.303Z,1.29
2023-01-19T15:39:27.795Z,1.26
2023-01-19T15:43:31.024Z,1.24
2023-01-19T15:47:35.650Z,1.26
2023-01-19T15:51:38.602Z,1.26
2023-01-19T15:55:43.524Z,1.28
2023-01-19T15:59:46.789Z,1.28
2023-01-19T16:03:50.550Z,1.28
2023-01-19T16:07:54.026Z,1.27
2023-01-19T16:12:00.313Z,1.26
2023-01-19T16:16:04.808Z,1.26
2023-01-19T16:20:09.599Z,1.25
2023-01-19T16:24:15.532Z,1.24
2023-01-19T16:28:20.337Z,1.24
2023-01-19T16:32:23.293Z,1.25
2023-01-19T16:36:28.329Z,1.23
2023-01-19T16:40:31.612Z,1.25
2023-01-19T16:44:36.277Z,1.25
2023-01-19T16:48:39.284Z,1.25
2023-01-19T16:52:42.520Z,1.25
2023-01-19T16:56:47.708Z,1.24
2023-01-19T17:00:53.204Z,1.24
2023-01-19T17:04:56.487Z,1.25
2023-01-19T17:09:01.728Z,1.25
2023-01-19T17:13:05.467Z,1.24
2023-01-19T17:17:09.610Z,1.23
2023-01-19T17:21:13.031Z,1.20
2023-01-19T17:25:17.141Z,1.20
2023-01-19T17:29:20.852Z,1.21
2023-01-19T17:33:26.024Z,1.21
2023-01-19T17:37:28.801Z,1.21
2023-01-19T17:41:35.208Z,1.20
2023-01-19T17:45:38.960Z,1.20
2023-01-19T17:49:44.071Z,1.20
2023-01-19T17:53:47.157Z,1.20
2023-01-19T17:57:50.338Z,1.20
2023-01-19T18:01:53.386Z,1.18
2023-01-19T18:05:58.311Z,1.19
2023-01-19T18:10:01.324Z,1.18
2023-01-19T18:14:04.413Z,1.18
2023-01-19T18:18:07.635Z,1.18
2023-01-19T18:22:12.582Z,1.18
2023-01-19T18:26:18.931Z,1.17
2023-01-19T18:30:22.685Z,1.17
2023-01-19T18:34:26.017Z,1.16
2023-01-19T18:38:31.744Z,1.15
2023-01-19T18:42:35.838Z,1.17
2023-01-19T18:46:39.054Z,1.18
2023-01-19T18:50:43.092Z,1.17
2023-01-19T18:54:47.049Z,1.19
2023-01-19T18:58:50.012Z,1.15
2023-01-19T19:02:53.508Z,1.13
2023-01-19T19:06:56.825Z,1.11
2023-01-19T19:11:01.561Z,1.09
2023-01-19T19:15:05.821Z,1.09
2023-01-19T19:19:12.121Z,1.09
2023-01-19T19:23:15.780Z,1.08
2023-01-19T19:27:20.250Z,1.08
2023-01-19T19:31:26.277Z,1.06
2023-01-19T19:35:29.420Z,1.03
2023-01-19T19:39:32.569Z,0.97
2023-01-19T19:43:37.706Z,0.95
2023-01-19T19:47:40.944Z,0.94
2023-01-19T19:51:44.487Z,0.94
2023-01-19T19:55:58.350Z,0.87
2023-01-19T20:00:05.400Z,0.87
2023-01-19T20:04:10.223Z,0.85
2023-01-19T20:08:13.553Z,0.80
2023-01-19T20:12:16.873Z,0.80
2023-01-19T20:16:24.433Z,0.82
2023-01-19T20:20:27.231Z,0.81
2023-01-19T20:24:30.850Z,0.81
2023-01-19T20:28:34.378Z,0.77
2023-01-19T20:32:40.699Z,0.71
2023-01-19T20:36:47.011Z,0.68
2023-01-19T20:40:52.075Z,0.66
2023-01-19T20:44:56.748Z,0.61
2023-01-19T20:49:02.789Z,0.57
2023-01-19T20:53:05.990Z,0.54
2023-01-19T20:57:09.187Z,0.50
2023-01-19T21:01:14.353Z,0.46
2023-01-19T21:05:19.205Z,0.42
2023-01-19T21:09:23.143Z,0.40
2023-01-19T21:13:26.400Z,0.38
2023-01-19T21:17:29.592Z,0.38
2023-01-19T21:21:33.913Z,0.37
2023-01-19T21:25:38.555Z,0.37
2023-01-19T21:29:41.991Z,0.36
2023-01-19T21:33:45.528Z,0.35
2023-01-19T21:37:50.996Z,0.35
2023-01-19T21:41:54.148Z,0.32
2023-01-19T21:45:57.265Z,0.33
2023-01-19T21:50:05.674Z,0.33
2023-01-19T21:54:12.019Z,0.34
2023-01-19T21:58:16.632Z,0.37
2023-01-19T22:02:33.324Z,0.34
2023-01-19T22:06:45.970Z,0.35
2023-01-19T22:10:50.250Z,0.33
2023-01-19T22:14:53.467Z,0.33
2023-01-19T22:18:59.719Z,0.29
2023-01-19T22:23:03.033Z,0.27
2023-01-19T22:27:09.296Z,0.25
2023-01-19T22:31:14.362Z,0.21
2023-01-19T22:35:19.889Z,0.18
2023-01-19T22:39:22.881Z,0.11
2023-01-19T22:43:27.768Z,0.05
2023-01-19T22:47:30.968Z,0.00
2023-01-19T22:51:34.639Z,0.00
2023-01-19T22:55:37.857Z,-0.02
2023-01-19T22:59:43.937Z,-0.04
2023-01-19T23:03:47.455Z,-0.06
2023-01-19T23:07:50.632Z,-0.10
2023-01-19T23:11:53.893Z,-0.12
2023-01-19T23:15:58.732Z,-0.14
2023-01-19T23:20:01.753Z,-0.13
2023-01-19T23:24:06.217Z,-0.12
2023-01-19T23:28:10.084Z,-0.12
2023-01-19T23:32:15.369Z,-0.14
2023-01-19T23:36:19.175Z,-0.14
2023-01-19T23:40:22.023Z,-0.13
2023-01-19T23:44:25.142Z,-0.15
2023-01-19T23:48:30.108Z,-0.17
2023-01-19T23:52:33.994Z,-0.17
2023-01-19T23:56:39.986Z,-0.18
